Time;durP1;ratioP1;P1;durP2;ratioP2;P2;SDS_P1;SDS_P2;PMS_P1;PMS_P2;Temp;Humidity;BMP_temperature;BMP_pressure;BME280_temperature;BME280_humidity;BME280_pressure;Samples;Min_cycle;Max_cycle;Signal;HPM_P1;HPM_P2
2022/10/17 00:00:43;;;;;;;10.95;6.95;;;14.20;99.90;;;;;;5063930;28;20025;-74
2022/10/17 00:03:09;;;;;;;10.77;7.43;;;14.20;99.90;;;;;;5071051;28;20500;-75
2022/10/17 00:05:39;;;;;;;11.05;7.95;;;14.20;99.90;;;;;;5062200;28;20479;-74
2022/10/17 00:08:05;;;;;;;12.93;8.23;;;14.30;99.90;;;;;;5070895;28;20086;-74
2022/10/17 00:10:30;;;;;;;11.18;8.15;;;14.20;99.90;;;;;;5070088;28;20028;-74
2022/10/17 00:12:56;;;;;;;10.20;7.90;;;14.30;99.90;;;;;;5055373;28;20044;-74
2022/10/17 00:15:22;;;;;;;10.07;7.82;;;14.30;99.90;;;;;;5052951;28;20025;-74
2022/10/17 00:17:48;;;;;;;12.40;8.57;;;14.30;99.90;;;;;;5050319;28;20461;-74
2022/10/17 00:20:14;;;;;;;13.77;9.05;;;14.30;99.90;;;;;;5051704;28;20104;-75
2022/10/17 00:22:39;;;;;;;13.20;8.77;;;14.40;99.90;;;;;;5069914;28;20116;-74
2022/10/17 00:25:05;;;;;;;13.07;9.43;;;14.40;99.90;;;;;;5070740;28;20052;-74
2022/10/17 00:27:34;;;;;;;10.75;8.63;;;14.40;99.90;;;;;;5070331;28;20082;-74
2022/10/17 00:30:00;;;;;;;11.63;8.73;;;14.40;99.90;;;;;;5055457;28;20053;-74
2022/10/17 00:32:25;;;;;;;12.73;8.85;;;14.50;99.90;;;;;;5058652;28;20101;-74
2022/10/17 00:34:51;;;;;;;10.98;8.93;;;14.40;99.90;;;;;;5064288;28;20036;-74
2022/10/17 00:37:16;;;;;;;12.23;9.15;;;14.40;99.90;;;;;;5062464;28;20033;-74
2022/10/17 00:39:42;;;;;;;15.15;9.63;;;14.50;99.90;;;;;;5064461;28;20036;-75
2022/10/17 00:42:11;;;;;;;12.27;8.65;;;14.50;99.90;;;;;;5057147;28;20024;-74
2022/10/17 00:44:46;;;;;;;13.43;9.43;;;14.50;99.90;;;;;;5072438;28;20040;-74
2022/10/17 00:47:14;;;;;;;13.60;9.50;;;14.40;99.90;;;;;;5072791;28;20069;-74
2022/10/17 00:49:40;;;;;;;11.52;9.00;;;14.40;99.90;;;;;;5064802;28;20024;-74
2022/10/17 00:52:13;;;;;;;14.15;9.55;;;14.40;99.90;;;;;;5053196;28;20044;-74
2022/10/17 00:54:42;;;;;;;13.57;9.88;;;14.40;99.90;;;;;;5058142;28;20021;-74
2022/10/17 00:57:09;;;;;;;13.63;9.57;;;14.40;99.90;;;;;;5060672;28;20033;-74
2022/10/17 00:59:37;;;;;;;15.82;10.20;;;14.40;99.90;;;;;;5064431;28;20095;-74
2022/10/17 01:02:03;;;;;;;13.30;9.80;;;14.50;99.90;;;;;;5071756;28;20036;-74
2022/10/17 01:04:29;;;;;;;12.55;9.77;;;14.50;99.90;;;;;;5070291;28;20400;-74
2022/10/17 01:06:55;;;;;;;12.30;9.73;;;14.50;99.90;;;;;;5072771;28;20028;-74
2022/10/17 01:09:21;;;;;;;13.70;10.13;;;14.50;99.90;;;;;;5070617;28;20091;-74
2022/10/17 01:12:15;;;;;;;14.15;9.40;;;14.50;99.90;;;;;;5068056;28;20115;-74
2022/10/17 01:15:10;;;;;;;13.20;9.48;;;14.50;99.90;;;;;;5068100;28;20039;-74
2022/10/17 01:17:54;;;;;;;12.18;8.82;;;14.50;99.90;;;;;;5064110;28;20396;-74
2022/10/17 01:20:40;;;;;;;14.82;9.55;;;14.50;99.90;;;;;;5063575;28;20035;-74
2022/10/17 01:23:27;;;;;;;12.82;9.48;;;14.60;99.90;;;;;;5070350;28;20040;-74
2022/10/17 01:26:29;;;;;;;13.13;10.18;;;14.60;99.90;;;;;;5059471;28;20029;-74
2022/10/17 01:29:25;;;;;;;12.85;9.65;;;14.60;99.90;;;;;;5054235;28;20075;-74
2022/10/17 01:32:07;;;;;;;14.88;9.40;;;14.50;99.90;;;;;;5065616;28;20072;-74
2022/10/17 01:34:40;;;;;;;12.80;9.88;;;14.60;99.90;;;;;;5066743;28;20028;-74
2022/10/17 01:37:17;;;;;;;12.93;10.23;;;14.60;99.90;;;;;;5057899;28;20072;-74
2022/10/17 01:40:10;;;;;;;12.02;9.80;;;14.60;99.90;;;;;;5053743;28;20393;-74
2022/10/17 01:42:53;;;;;;;12.18;9.70;;;14.60;99.90;;;;;;5062591;28;20035;-74
2022/10/17 01:45:30;;;;;;;14.48;10.95;;;14.60;99.90;;;;;;5061131;28;20376;-74
2022/10/17 01:47:59;;;;;;;13.93;9.80;;;14.60;99.90;;;;;;5068295;28;20035;-74
2022/10/17 01:50:34;;;;;;;12.07;10.13;;;14.60;99.90;;;;;;5066630;28;20029;-74
2022/10/17 01:53:11;;;;;;;14.77;10.82;;;14.60;99.90;;;;;;5055691;28;20079;-74
2022/10/17 01:55:40;;;;;;;12.95;10.25;;;14.70;99.90;;;;;;5059403;28;20079;-74
2022/10/17 01:58:11;;;;;;;15.10;10.25;;;14.70;99.90;;;;;;5060518;28;20021;-74
2022/10/17 02:00:41;;;;;;;14.48;10.20;;;14.70;99.90;;;;;;5054504;28;20525;-74
2022/10/17 02:03:12;;;;;;;15.07;9.73;;;14.70;99.90;;;;;;5063405;28;20037;-74
2022/10/17 02:05:40;;;;;;;12.23;9.73;;;14.70;99.90;;;;;;5060926;28;20021;-74
2022/10/17 02:08:06;;;;;;;13.73;10.20;;;14.70;99.90;;;;;;5065625;28;20361;-74
2022/10/17 02:10:51;;;;;;;14.35;10.13;;;14.70;99.90;;;;;;5072061;28;20042;-74
2022/10/17 02:13:49;;;;;;;15.25;10.50;;;14.80;99.90;;;;;;5065966;28;20136;-75
2022/10/17 02:16:33;;;;;;;11.95;9.57;;;14.80;99.90;;;;;;5059649;28;20206;-74
2022/10/17 02:19:29;;;;;;;13.02;10.65;;;14.80;99.90;;;;;;5070499;28;20031;-74
2022/10/17 02:22:09;;;;;;;13.27;9.57;;;14.80;99.90;;;;;;5052767;28;20044;-75
2022/10/17 02:24:48;;;;;;;15.50;10.27;;;14.80;99.90;;;;;;5070003;28;20119;-74
2022/10/17 02:27:31;;;;;;;14.95;10.38;;;14.80;99.90;;;;;;5062297;28;20024;-74
2022/10/17 02:30:22;;;;;;;13.93;9.55;;;14.70;99.90;;;;;;5070093;28;20476;-74
2022/10/17 02:33:09;;;;;;;14.65;10.27;;;14.80;99.90;;;;;;5059644;28;20032;-75
2022/10/17 02:35:40;;;;;;;12.85;11.20;;;14.80;99.90;;;;;;5054592;28;20028;-74
2022/10/17 02:38:08;;;;;;;13.57;10.73;;;14.70;99.90;;;;;;5061604;28;20151;-74
2022/10/17 02:40:36;;;;;;;15.07;11.07;;;14.70;99.90;;;;;;5052090;28;20548;-74
2022/10/17 02:43:01;;;;;;;16.05;11.55;;;14.70;99.90;;;;;;5068639;28;20035;-74
2022/10/17 02:45:29;;;;;;;15.07;10.80;;;14.70;99.90;;;;;;5068026;28;20037;-74
2022/10/17 02:48:06;;;;;;;14.45;11.18;;;14.70;99.90;;;;;;5065702;28;20058;-74
2022/10/17 02:50:53;;;;;;;15.18;11.25;;;14.60;99.90;;;;;;5060895;28;20067;-74
2022/10/17 02:53:34;;;;;;;14.88;11.20;;;14.70;99.90;;;;;;5066990;28;20047;-74
2022/10/17 02:56:05;;;;;;;15.65;10.80;;;14.60;99.90;;;;;;5066141;28;20029;-74
2022/10/17 02:58:33;;;;;;;14.38;11.10;;;14.60;99.90;;;;;;5070489;28;20047;-74
2022/10/17 03:00:59;;;;;;;14.35;10.85;;;14.60;99.90;;;;;;5069434;28;20081;-74
2022/10/17 03:03:30;;;;;;;16.25;11.07;;;14.60;99.90;;;;;;5068677;28;20036;-74
2022/10/17 03:05:55;;;;;;;17.05;11.02;;;14.60;99.90;;;;;;5067656;28;20033;-74
2022/10/17 03:08:21;;;;;;;13.73;10.80;;;14.60;99.90;;;;;;5062948;28;20380;-75
2022/10/17 03:10:47;;;;;;;12.73;10.45;;;14.60;99.90;;;;;;5063112;28;20481;-75
2022/10/17 03:13:14;;;;;;;14.30;11.18;;;14.60;99.90;;;;;;5051375;28;20230;-74
2022/10/17 03:15:40;;;;;;;15.38;11.20;;;14.60;99.90;;;;;;5057164;28;20028;-75
2022/10/17 03:18:05;;;;;;;14.82;10.88;;;14.60;99.90;;;;;;5063549;28;20024;-75
2022/10/17 03:20:31;;;;;;;14.60;11.07;;;14.60;99.90;;;;;;5070619;28;20389;-75
2022/10/17 03:22:56;;;;;;;12.55;10.45;;;14.60;99.90;;;;;;5061592;28;20396;-75
2022/10/17 03:25:22;;;;;;;16.83;11.25;;;14.60;99.90;;;;;;5069776;28;20059;-75
2022/10/17 03:27:48;;;;;;;15.88;11.68;;;14.70;99.90;;;;;;5066922;28;20025;-74
2022/10/17 03:30:13;;;;;;;15.27;11.55;;;14.70;99.90;;;;;;5052137;28;20374;-75
2022/10/17 03:32:39;;;;;;;14.10;10.88;;;14.70;99.90;;;;;;5062893;28;20040;-75
2022/10/17 03:35:05;;;;;;;15.15;10.55;;;14.80;99.90;;;;;;5056679;28;20035;-75
2022/10/17 03:37:30;;;;;;;15.52;10.88;;;14.80;99.90;;;;;;5069676;28;20021;-75
2022/10/17 03:39:56;;;;;;;14.48;11.10;;;14.80;99.90;;;;;;5070995;28;20025;-75
2022/10/17 03:42:22;;;;;;;15.57;11.65;;;14.80;99.90;;;;;;5056609;28;20036;-75
2022/10/17 03:44:47;;;;;;;13.90;10.48;;;14.90;99.90;;;;;;5050557;28;20027;-75
2022/10/17 03:47:13;;;;;;;15.88;11.70;;;14.90;99.90;;;;;;5060524;28;20427;-75
2022/10/17 03:49:39;;;;;;;13.20;11.23;;;14.90;99.90;;;;;;5071021;28;20031;-75
2022/10/17 03:52:04;;;;;;;15.00;11.95;;;14.90;99.90;;;;;;5061642;28;20041;-75
2022/10/17 03:54:30;;;;;;;16.77;10.73;;;14.90;99.90;;;;;;5058899;28;20039;-75
2022/10/17 03:56:55;;;;;;;17.27;11.73;;;14.90;99.90;;;;;;5059162;28;20108;-74
2022/10/17 03:59:21;;;;;;;16.58;11.77;;;14.90;99.90;;;;;;5051421;28;20098;-75
2022/10/17 04:01:46;;;;;;;18.83;12.00;;;14.90;99.90;;;;;;5052802;28;20075;-75
2022/10/17 04:04:12;;;;;;;14.38;10.82;;;14.90;99.90;;;;;;5068651;28;20036;-75
2022/10/17 04:06:38;;;;;;;17.48;11.32;;;14.90;99.90;;;;;;5055491;28;20380;-75
2022/10/17 04:09:05;;;;;;;13.20;10.93;;;14.90;99.90;;;;;;5070683;28;20025;-75
2022/10/17 04:11:31;;;;;;;13.38;10.98;;;14.80;99.90;;;;;;5069154;28;20115;-75
2022/10/17 04:13:58;;;;;;;13.07;10.45;;;14.90;99.90;;;;;;5073462;28;20107;-75
2022/10/17 04:16:23;;;;;;;15.63;12.18;;;14.90;99.90;;;;;;5071281;28;20131;-75
2022/10/17 04:18:57;;;;;;;15.45;11.55;;;14.90;99.90;;;;;;5054477;28;20112;-75
2022/10/17 04:21:25;;;;;;;16.92;11.07;;;14.90;99.90;;;;;;5063468;28;20024;-75
2022/10/17 04:23:55;;;;;;;17.08;12.10;;;14.90;99.90;;;;;;5073727;28;20028;-75
2022/10/17 04:26:21;;;;;;;16.00;11.95;;;14.90;99.90;;;;;;5069076;28;20024;-76
2022/10/17 04:28:46;;;;;;;15.02;10.80;;;15.00;99.90;;;;;;5070358;28;20024;-76
2022/10/17 04:31:13;;;;;;;21.20;11.40;;;15.00;99.90;;;;;;5062812;28;20048;-76
2022/10/17 04:33:39;;;;;;;14.75;12.13;;;15.00;99.90;;;;;;5068315;28;20021;-76
2022/10/17 04:36:09;;;;;;;14.13;10.88;;;15.00;99.90;;;;;;5070015;28;20032;-76
2022/10/17 04:38:34;;;;;;;17.02;11.15;;;15.00;99.90;;;;;;5057813;28;20116;-76
2022/10/17 04:41:02;;;;;;;13.20;10.73;;;15.00;99.90;;;;;;5055063;28;20103;-76
2022/10/17 04:43:32;;;;;;;13.85;11.40;;;15.10;99.90;;;;;;5062307;28;20043;-76
2022/10/17 04:45:59;;;;;;;14.32;11.63;;;15.10;99.90;;;;;;5073617;28;20031;-77
2022/10/17 04:48:24;;;;;;;14.10;11.27;;;15.10;99.90;;;;;;5064512;28;20066;-76
2022/10/17 04:50:54;;;;;;;15.60;11.80;;;15.10;99.90;;;;;;5072502;28;20122;-75
2022/10/17 04:53:21;;;;;;;16.70;11.90;;;15.20;99.90;;;;;;5059372;28;20052;-75
2022/10/17 04:55:46;;;;;;;15.27;11.95;;;15.10;99.90;;;;;;5060474;28;20412;-75
2022/10/17 04:58:12;;;;;;;12.68;10.80;;;15.20;99.90;;;;;;5072118;28;20024;-75
2022/10/17 05:00:37;;;;;;;14.48;11.13;;;15.20;99.90;;;;;;5070627;28;20103;-75
2022/10/17 05:03:03;;;;;;;14.02;10.48;;;15.20;99.90;;;;;;5066166;28;20592;-75
2022/10/17 05:05:28;;;;;;;15.40;11.48;;;15.20;99.90;;;;;;5072403;28;20071;-75
2022/10/17 05:07:54;;;;;;;12.60;11.02;;;15.10;99.90;;;;;;5071584;28;20537;-75
2022/10/17 05:10:19;;;;;;;18.73;11.10;;;15.20;99.90;;;;;;5061497;28;20060;-75
2022/10/17 05:12:47;;;;;;;12.82;10.55;;;15.10;99.90;;;;;;5064466;28;20041;-75
2022/10/17 05:15:13;;;;;;;13.20;11.00;;;15.10;99.90;;;;;;5073526;28;20029;-75
2022/10/17 05:17:38;;;;;;;15.65;10.38;;;15.20;99.90;;;;;;5069869;28;20373;-75
2022/10/17 05:20:04;;;;;;;16.92;10.60;;;15.20;99.90;;;;;;5068379;28;20067;-75
2022/10/17 05:22:30;;;;;;;13.40;10.73;;;15.20;99.90;;;;;;5064575;28;20456;-75
2022/10/17 05:24:55;;;;;;;18.67;11.02;;;15.20;99.90;;;;;;5067992;28;20059;-75
2022/10/17 05:27:21;;;;;;;15.00;10.07;;;15.20;99.90;;;;;;5065679;28;20140;-75
2022/10/17 05:29:46;;;;;;;14.10;10.40;;;15.30;99.90;;;;;;5067666;28;20413;-75
2022/10/17 05:32:13;;;;;;;12.13;10.60;;;15.30;99.90;;;;;;5066167;28;20066;-75
2022/10/17 05:34:39;;;;;;;12.48;10.43;;;15.40;99.90;;;;;;5063500;28;20428;-75
2022/10/17 05:37:04;;;;;;;11.02;9.57;;;15.40;99.90;;;;;;5061528;28;20056;-75
2022/10/17 05:39:30;;;;;;;13.57;9.38;;;15.50;99.90;;;;;;5059050;28;20020;-75
2022/10/17 05:41:55;;;;;;;12.38;9.55;;;15.50;99.90;;;;;;5064436;28;20024;-75
2022/10/17 05:44:21;;;;;;;14.15;9.85;;;15.50;99.90;;;;;;5068542;28;20032;-75
2022/10/17 05:46:50;;;;;;;11.43;8.95;;;15.60;99.90;;;;;;5067001;28;20443;-75
2022/10/17 05:49:16;;;;;;;12.18;9.43;;;15.60;99.90;;;;;;5063802;28;20024;-76
2022/10/17 05:51:42;;;;;;;12.40;8.05;;;15.60;99.90;;;;;;5063037;28;20067;-76
2022/10/17 05:54:07;;;;;;;12.98;8.85;;;15.60;99.90;;;;;;5063430;28;20020;-76
2022/10/17 05:56:33;;;;;;;14.68;9.70;;;15.70;99.90;;;;;;5051973;28;20331;-75
2022/10/17 05:58:59;;;;;;;15.00;8.63;;;15.70;99.90;;;;;;5064606;28;20021;-76
2022/10/17 06:01:24;;;;;;;13.30;8.63;;;15.70;99.90;;;;;;5063126;28;20456;-75
2022/10/17 06:03:50;;;;;;;12.55;8.70;;;15.80;99.90;;;;;;5063806;28;20033;-75
2022/10/17 06:06:17;;;;;;;14.07;8.98;;;15.80;99.90;;;;;;5063939;28;20025;-75
2022/10/17 06:08:43;;;;;;;14.75;9.85;;;15.70;99.90;;;;;;5055056;28;20036;-77
2022/10/17 06:11:10;;;;;;;16.35;9.35;;;15.80;99.90;;;;;;5063188;28;20040;-76
2022/10/17 06:13:35;;;;;;;11.15;7.57;;;15.80;99.90;;;;;;5065077;28;20028;-76
2022/10/17 06:16:01;;;;;;;12.80;8.38;;;15.80;99.90;;;;;;5069176;28;20024;-76
2022/10/17 06:18:26;;;;;;;11.98;9.25;;;15.80;99.90;;;;;;5065608;28;20017;-76
2022/10/17 06:20:52;;;;;;;9.90;8.05;;;15.80;99.90;;;;;;5063972;28;20154;-75
2022/10/17 06:23:18;;;;;;;10.88;8.18;;;15.90;99.90;;;;;;5068081;28;20141;-77
2022/10/17 06:25:44;;;;;;;11.85;8.13;;;15.90;99.90;;;;;;5065359;28;20025;-77
2022/10/17 06:28:10;;;;;;;11.27;8.32;;;16.00;99.90;;;;;;5063382;28;20416;-76
2022/10/17 06:30:39;;;;;;;11.55;8.20;;;16.00;99.90;;;;;;5064618;28;20098;-77
2022/10/17 06:33:05;;;;;;;11.10;8.00;;;16.00;99.90;;;;;;5066907;28;20064;-76
2022/10/17 06:35:31;;;;;;;12.55;7.93;;;16.00;99.90;;;;;;5069334;28;20071;-76
2022/10/17 06:37:56;;;;;;;10.68;7.95;;;16.10;99.90;;;;;;5068017;28;20167;-77
2022/10/17 06:40:22;;;;;;;12.95;7.63;;;16.10;99.90;;;;;;5060079;28;20480;-76
2022/10/17 06:42:47;;;;;;;10.05;7.95;;;16.10;99.90;;;;;;5059682;28;20031;-74
2022/10/17 06:45:13;;;;;;;10.65;7.18;;;16.20;99.90;;;;;;5053542;28;20037;-75
2022/10/17 06:47:39;;;;;;;12.35;7.65;;;16.20;99.90;;;;;;5054907;28;20039;-74
2022/10/17 06:50:05;;;;;;;11.75;8.68;;;16.20;99.90;;;;;;5059246;28;20036;-75
2022/10/17 06:52:31;;;;;;;8.45;7.40;;;16.20;99.90;;;;;;5057182;28;20028;-76
2022/10/17 06:54:56;;;;;;;10.55;7.85;;;16.30;99.90;;;;;;5058472;28;20033;-76
2022/10/17 06:57:22;;;;;;;9.70;7.18;;;16.30;99.90;;;;;;5056242;28;20107;-76
2022/10/17 06:59:47;;;;;;;10.32;7.03;;;16.30;99.90;;;;;;5054656;28;20029;-76
2022/10/17 07:02:13;;;;;;;9.90;7.85;;;16.40;99.90;;;;;;5063099;28;20078;-75
2022/10/17 07:04:38;;;;;;;11.82;7.68;;;16.40;99.90;;;;;;5057389;28;20025;-75
2022/10/17 07:07:04;;;;;;;7.35;6.65;;;16.50;99.90;;;;;;5062109;28;20060;-75
2022/10/17 07:09:31;;;;;;;10.15;7.45;;;16.50;99.90;;;;;;5059094;28;20461;-76
2022/10/17 07:11:58;;;;;;;9.05;6.97;;;16.60;99.90;;;;;;5057175;28;20075;-76
2022/10/17 07:14:30;;;;;;;9.70;7.50;;;16.70;99.90;;;;;;5062513;28;20024;-75
2022/10/17 07:16:57;;;;;;;9.95;7.40;;;16.70;99.90;;;;;;5059215;28;20051;-76
2022/10/17 07:19:23;;;;;;;7.97;6.85;;;16.70;99.90;;;;;;5060457;28;20405;-76
2022/10/17 07:21:49;;;;;;;10.05;7.20;;;16.70;99.90;;;;;;5064359;28;20064;-76
2022/10/17 07:24:15;;;;;;;11.35;6.88;;;16.70;99.90;;;;;;5061330;28;20038;-77
2022/10/17 07:26:40;;;;;;;12.50;7.60;;;16.80;99.90;;;;;;5059133;28;20818;-76
2022/10/17 07:29:06;;;;;;;10.27;7.22;;;16.90;99.90;;;;;;5059389;28;20464;-76
2022/10/17 07:31:32;;;;;;;10.88;6.53;;;16.90;99.90;;;;;;5059431;28;20039;-77
2022/10/17 07:34:01;;;;;;;8.90;6.80;;;16.90;99.90;;;;;;5063727;28;20052;-77
2022/10/17 07:36:26;;;;;;;8.70;6.68;;;17.00;99.90;;;;;;5060912;28;20020;-77
2022/10/17 07:38:52;;;;;;;9.30;6.78;;;17.00;99.90;;;;;;5063090;28;20035;-77
2022/10/17 07:41:18;;;;;;;10.02;6.15;;;17.10;99.90;;;;;;5058145;28;20025;-78
2022/10/17 07:43:45;;;;;;;10.00;6.93;;;17.10;99.90;;;;;;5058645;28;20021;-79
2022/10/17 07:46:11;;;;;;;9.02;6.43;;;17.10;99.90;;;;;;5073790;28;20040;-76
2022/10/17 07:48:38;;;;;;;12.60;6.82;;;17.10;99.90;;;;;;5060160;28;20033;-76
2022/10/17 07:51:05;;;;;;;8.30;6.22;;;17.10;99.90;;;;;;5064910;28;20028;-75
2022/10/17 07:53:33;;;;;;;9.38;7.13;;;17.10;99.90;;;;;;5058374;28;20012;-75
2022/10/17 07:56:02;;;;;;;10.43;6.97;;;17.00;99.90;;;;;;5064845;28;20027;-75
2022/10/17 07:58:28;;;;;;;8.15;6.72;;;17.00;99.90;;;;;;5066846;28;20021;-75
2022/10/17 08:00:53;;;;;;;9.15;6.97;;;17.00;99.90;;;;;;5067469;28;20059;-75
2022/10/17 08:03:19;;;;;;;11.63;6.75;;;17.00;99.90;;;;;;5064019;28;20091;-76
2022/10/17 08:05:48;;;;;;;8.98;7.03;;;17.00;99.90;;;;;;5058761;28;20424;-77
2022/10/17 08:08:13;;;;;;;8.65;6.88;;;17.00;99.90;;;;;;5061517;28;20135;-83
2022/10/17 08:10:39;;;;;;;10.95;7.20;;;16.90;99.90;;;;;;5064527;28;20595;-77
2022/10/17 08:13:04;;;;;;;10.07;6.57;;;17.00;99.90;;;;;;5052713;28;20111;-77
2022/10/17 08:15:30;;;;;;;7.97;5.55;;;17.00;99.90;;;;;;5070535;28;20029;-77
2022/10/17 08:17:55;;;;;;;11.20;6.28;;;17.00;99.90;;;;;;5062012;28;20083;-75
2022/10/17 08:20:21;;;;;;;9.35;6.68;;;17.00;99.90;;;;;;5059831;28;20039;-77
2022/10/17 08:22:54;;;;;;;11.77;7.30;;;16.90;99.90;;;;;;5058530;28;20017;-77
2022/10/17 08:25:20;;;;;;;8.68;6.63;;;16.90;99.90;;;;;;5062297;28;20036;-75
2022/10/17 08:27:46;;;;;;;10.55;7.53;;;16.90;99.90;;;;;;5066591;28;20048;-76
2022/10/17 08:30:11;;;;;;;11.02;7.53;;;16.80;99.90;;;;;;5056021;28;20170;-76
2022/10/17 08:32:37;;;;;;;11.70;7.32;;;16.80;99.90;;;;;;5061769;28;20037;-76
2022/10/17 08:35:03;;;;;;;10.32;8.15;;;16.80;99.90;;;;;;5062141;28;20017;-76
2022/10/17 08:37:29;;;;;;;9.57;6.85;;;16.80;99.90;;;;;;5052641;28;20025;-76
2022/10/17 08:39:55;;;;;;;12.85;7.75;;;16.80;99.90;;;;;;5062203;28;20024;-79
2022/10/17 08:43:09;;;;;;;9.95;7.00;;;16.80;99.90;;;;;;5061401;28;20389;-77
2022/10/17 08:45:40;;;;;;;11.43;7.45;;;16.80;99.90;;;;;;5059016;28;20025;-76
2022/10/17 08:48:12;;;;;;;15.95;8.68;;;16.80;99.90;;;;;;5065983;28;20033;-77
2022/10/17 08:50:59;;;;;;;;;;;16.70;99.90;;;;;;5061871;28;20062;-77
2022/10/17 08:53:57;;;;;;;12.65;7.35;;;16.80;99.90;;;;;;5058630;28;19915;-76
2022/10/17 08:56:26;;;;;;;9.90;6.88;;;16.70;99.90;;;;;;5064104;28;20033;-78
2022/10/17 08:58:52;;;;;;;11.68;7.15;;;16.70;99.90;;;;;;5062734;28;20028;-77
2022/10/17 09:01:38;;;;;;;12.05;7.43;;;16.70;99.90;;;;;;5069225;28;20060;-77
2022/10/17 09:04:12;;;;;;;9.18;6.47;;;16.70;99.90;;;;;;5070855;28;20400;-78
2022/10/17 09:06:57;;;;;;;8.30;6.90;;;16.70;99.90;;;;;;5061658;28;20029;-77
2022/10/17 09:09:38;;;;;;;13.30;6.93;;;16.70;99.90;;;;;;5066768;28;20036;-76
2022/10/17 09:12:16;;;;;;;12.30;6.87;;;16.70;99.90;;;;;;5062005;28;20115;-76
2022/10/17 09:15:04;;;;;;;20.40;7.80;;;16.70;99.90;;;;;;5064321;28;20031;-77
2022/10/17 09:17:48;;;;;;;10.60;6.85;;;16.70;99.90;;;;;;5050031;28;20032;-77
2022/10/17 09:20:22;;;;;;;11.77;6.90;;;16.70;99.90;;;;;;5059842;28;20025;-78
2022/10/17 09:22:59;;;;;;;12.40;7.30;;;16.70;99.90;;;;;;5064565;28;20021;-76
2022/10/17 09:25:26;;;;;;;11.93;7.28;;;16.70;99.90;;;;;;5052932;28;20108;-76
2022/10/17 09:28:12;;;;;;;9.75;7.07;;;16.70;99.90;;;;;;5064408;28;20024;-76
2022/10/17 09:30:48;;;;;;;12.15;7.85;;;16.80;99.90;;;;;;5064599;28;20087;-77
2022/10/17 09:33:19;;;;;;;15.45;7.50;;;16.80;99.90;;;;;;5064701;28;20586;-77
2022/10/17 09:35:45;;;;;;;15.85;7.47;;;16.80;99.90;;;;;;5056723;28;20021;-77
2022/10/17 09:38:17;;;;;;;8.95;7.13;;;16.70;99.90;;;;;;5063620;28;20078;-77
2022/10/17 09:40:44;;;;;;;12.60;7.20;;;16.70;99.90;;;;;;5060368;28;20406;-77
2022/10/17 09:43:14;;;;;;;11.00;7.07;;;16.70;99.90;;;;;;5068280;28;20024;-77
2022/10/17 09:46:01;;;;;;;11.68;6.90;;;16.70;99.90;;;;;;5070892;28;20056;-77
2022/10/17 09:48:45;;;;;;;12.27;6.68;;;16.70;99.90;;;;;;5058635;28;20024;-77
2022/10/17 09:51:13;;;;;;;13.65;7.82;;;16.70;99.90;;;;;;5067925;28;20082;-77
2022/10/17 09:53:42;;;;;;;13.18;8.73;;;16.70;99.90;;;;;;5058638;28;20025;-76
2022/10/17 09:56:17;;;;;;;13.65;8.20;;;16.70;99.90;;;;;;5070766;28;20404;-76
2022/10/17 09:58:43;;;;;;;15.63;8.38;;;16.80;99.90;;;;;;5064478;28;20020;-76
2022/10/17 10:01:21;;;;;;;13.55;7.65;;;16.80;99.90;;;;;;5053878;28;20507;-77
2022/10/17 10:03:47;;;;;;;13.55;7.72;;;16.90;99.90;;;;;;5057311;28;20021;-77
2022/10/17 10:06:19;;;;;;;13.13;8.55;;;16.90;99.90;;;;;;5061650;28;20116;-77
2022/10/17 10:08:54;;;;;;;12.63;8.38;;;16.90;99.90;;;;;;5065836;28;20472;-77
2022/10/17 10:11:49;;;;;;;13.98;9.32;;;16.90;99.90;;;;;;5052503;28;20167;-78
2022/10/17 10:14:36;;;;;;;14.10;8.82;;;16.90;99.90;;;;;;5059423;28;20514;-77
2022/10/17 10:17:25;;;;;;;11.63;8.93;;;16.90;99.90;;;;;;5060508;28;20021;-77
2022/10/17 10:19:51;;;;;;;14.93;9.07;;;16.80;99.90;;;;;;5052848;28;20420;-77
2022/10/17 10:22:19;;;;;;;14.07;9.15;;;16.90;99.90;;;;;;5055899;28;20090;-77
2022/10/17 10:24:45;;;;;;;10.90;8.15;;;16.90;99.90;;;;;;5061868;28;20028;-78
2022/10/17 10:27:16;;;;;;;12.55;8.60;;;16.90;99.90;;;;;;5058156;28;20032;-76
2022/10/17 10:29:49;;;;;;;11.68;8.43;;;16.90;99.90;;;;;;5058853;28;20048;-77
2022/10/17 10:32:30;;;;;;;10.57;7.55;;;16.90;99.90;;;;;;5052174;28;20041;-77
2022/10/17 10:35:07;;;;;;;10.32;7.72;;;16.90;99.90;;;;;;5061079;28;20491;-77
2022/10/17 10:37:43;;;;;;;9.93;7.25;;;17.00;99.90;;;;;;5070632;28;20492;-77
2022/10/17 10:40:31;;;;;;;9.65;7.05;;;17.10;99.90;;;;;;5064703;28;20024;-77
2022/10/17 10:42:59;;;;;;;9.90;7.22;;;17.10;99.90;;;;;;5058830;28;20034;-76
2022/10/17 10:45:27;;;;;;;9.65;7.22;;;17.10;99.90;;;;;;5058259;28;20995;-77
2022/10/17 10:47:54;;;;;;;11.20;7.75;;;17.20;99.90;;;;;;5052056;28;20053;-77
2022/10/17 10:50:37;;;;;;;12.40;9.05;;;17.30;99.90;;;;;;5054454;28;20039;-77
2022/10/17 10:53:11;;;;;;;;;;;17.30;99.90;;;;;;5061154;28;20032;-77
2022/10/17 10:55:43;;;;;;;15.35;10.00;;;17.40;99.90;;;;;;5067097;28;19974;-76
2022/10/17 10:58:26;;;;;;;14.48;10.35;;;17.40;99.90;;;;;;5057387;28;20078;-78
2022/10/17 11:00:54;;;;;;;14.60;9.98;;;17.40;99.90;;;;;;5061218;28;20119;-78
2022/10/17 11:03:42;;;;;;;12.02;9.32;;;17.40;99.90;;;;;;5058812;28;20028;-77
2022/10/17 11:06:17;;;;;;;15.00;9.18;;;17.40;99.90;;;;;;5060866;28;20392;-79
2022/10/17 11:09:09;;;;;;;13.13;9.10;;;17.40;99.90;;;;;;5064431;28;20021;-78
2022/10/17 11:11:41;;;;;;;14.68;10.05;;;17.40;99.90;;;;;;5061367;28;20063;-78
2022/10/17 11:14:44;;;;;;;13.00;9.30;;;17.40;99.90;;;;;;5060975;28;20062;-77
2022/10/17 11:17:17;;;;;;;;;;;17.40;99.90;;;;;;5068817;28;20492;-77
2022/10/17 11:19:58;;;;;;;14.25;10.43;;;17.40;99.90;;;;;;5059061;28;19923;-78
2022/10/17 11:22:44;;;;;;;14.93;11.10;;;17.40;99.90;;;;;;5051066;28;20025;-78
2022/10/17 11:25:33;;;;;;;12.48;9.60;;;17.40;99.90;;;;;;5057784;28;20437;-76
2022/10/17 11:28:00;;;;;;;14.77;10.00;;;17.40;99.90;;;;;;5067352;28;20029;-77
2022/10/17 11:30:30;;;;;;;10.82;9.27;;;17.40;99.90;;;;;;5066019;28;20489;-76
2022/10/17 11:32:59;;;;;;;15.13;9.55;;;17.40;99.90;;;;;;5058526;28;20032;-77
2022/10/17 11:35:42;;;;;;;11.25;8.65;;;17.40;99.90;;;;;;5062797;28;20027;-78
2022/10/17 11:38:40;;;;;;;14.43;9.95;;;17.50;99.90;;;;;;5062316;28;20036;-76
2022/10/17 11:41:13;;;;;;;10.88;9.18;;;17.50;99.90;;;;;;5057799;28;20107;-77
2022/10/17 11:43:53;;;;;;;14.55;9.70;;;17.50;99.90;;;;;;5052139;28;20029;-76
2022/10/17 11:46:26;;;;;;;12.07;9.30;;;17.50;99.90;;;;;;5053947;28;20037;-76
2022/10/17 11:49:00;;;;;;;12.20;9.43;;;17.60;99.90;;;;;;5053400;28;20032;-76
2022/10/17 11:51:25;;;;;;;16.83;9.13;;;17.60;99.90;;;;;;5058560;28;20078;-78
2022/10/17 11:54:06;;;;;;;16.08;9.95;;;17.50;99.90;;;;;;5065891;28;20028;-78
2022/10/17 11:57:10;;;;;;;15.00;10.38;;;17.50;99.90;;;;;;5050423;28;20029;-78
2022/10/17 11:59:56;;;;;;;11.15;8.82;;;17.50;99.90;;;;;;5053890;28;20086;-78
2022/10/17 12:03:07;;;;;;;14.02;9.32;;;17.50;99.90;;;;;;5062314;28;20519;-78
2022/10/17 12:05:39;;;;;;;14.65;9.45;;;17.50;99.90;;;;;;5064207;28;20029;-78
2022/10/17 12:08:29;;;;;;;12.70;9.10;;;17.60;99.90;;;;;;5065653;28;20097;-77
2022/10/17 12:11:10;;;;;;;14.85;9.57;;;17.60;99.90;;;;;;5060505;28;20072;-78
2022/10/17 12:13:36;;;;;;;15.15;10.88;;;17.60;99.90;;;;;;5056087;28;20503;-78
2022/10/17 12:16:19;;;;;;;14.73;10.00;;;17.70;99.90;;;;;;5064713;28;20032;-78
2022/10/17 12:18:59;;;;;;;17.50;10.23;;;17.70;99.90;;;;;;5057892;28;20020;-77
2022/10/17 12:21:25;;;;;;;12.90;9.32;;;17.70;99.90;;;;;;5057853;28;20025;-78
2022/10/17 12:23:52;;;;;;;12.30;10.40;;;17.70;99.90;;;;;;5060002;28;20109;-78
2022/10/17 12:26:26;;;;;;;15.13;9.60;;;17.70;99.90;;;;;;5058071;28;20032;-78
2022/10/17 12:28:52;;;;;;;10.63;8.70;;;17.80;99.90;;;;;;5063786;28;20467;-77
2022/10/17 12:31:24;;;;;;;10.63;9.35;;;17.80;99.90;;;;;;5069531;28;20138;-77
2022/10/17 12:33:57;;;;;;;13.43;9.48;;;17.90;99.90;;;;;;5063131;28;20032;-78
2022/10/17 12:36:26;;;;;;;10.70;8.77;;;17.80;99.90;;;;;;5061522;28;20036;-75
2022/10/17 12:39:00;;;;;;;10.68;8.75;;;17.90;99.90;;;;;;5071880;28;20024;-78
2022/10/17 12:41:47;;;;;;;9.75;8.25;;;17.90;99.90;;;;;;5067493;28;20110;-78
2022/10/17 12:44:12;;;;;;;13.57;8.48;;;17.90;99.90;;;;;;5055223;28;20129;-77
2022/10/17 12:46:49;;;;;;;12.77;9.27;;;17.90;99.90;;;;;;5065002;28;20141;-77
2022/10/17 12:49:39;;;;;;;11.15;8.50;;;17.90;99.90;;;;;;5065291;28;20029;-78
2022/10/17 12:52:26;;;;;;;12.73;8.55;;;17.90;99.90;;;;;;5072174;28;20040;-77
2022/10/17 12:54:59;;;;;;;12.32;8.60;;;17.90;99.90;;;;;;5057017;28;20143;-78
2022/10/17 12:57:42;;;;;;;10.63;8.80;;;18.00;99.90;;;;;;5062960;28;20040;-77